sensor_id;sensor_type;location;lat;lon;timestamp;temperature;humidity
56256;DHT22;57229;51.432;-2.598;2022-12-24T00:00:14;15.60;99.90
56256;DHT22;57229;51.432;-2.598;2022-12-24T00:02:40;15.70;99.90
56256;DHT22;57229;51.432;-2.598;2022-12-24T00:05:06;15.60;99.90
56256;DHT22;57229;51.432;-2.598;2022-12-24T00:07:31;15.60;99.90
56256;DHT22;57229;51.432;-2.598;2022-12-24T00:09:57;15.60;99.90
56256;DHT22;57229;51.432;-2.598;2022-12-24T00:12:23;15.60;99.90
56256;DHT22;57229;51.432;-2.598;2022-12-24T00:14:49;15.60;99.90
56256;DHT22;57229;51.432;-2.598;2022-12-24T00:17:15;15.60;99.90
56256;DHT22;57229;51.432;-2.598;2022-12-24T00:19:40;15.60;99.90
56256;DHT22;57229;51.432;-2.598;2022-12-24T00:22:08;15.60;99.90
56256;DHT22;57229;51.432;-2.598;2022-12-24T00:24:34;15.60;99.90
56256;DHT22;57229;51.432;-2.598;2022-12-24T00:27:03;15.50;99.90
56256;DHT22;57229;51.432;-2.598;2022-12-24T00:29:30;15.50;99.90
56256;DHT22;57229;51.432;-2.598;2022-12-24T00:31:59;15.50;99.90
56256;DHT22;57229;51.432;-2.598;2022-12-24T00:34:25;15.50;99.90
56256;DHT22;57229;51.432;-2.598;2022-12-24T00:36:51;15.50;99.90
56256;DHT22;57229;51.432;-2.598;2022-12-24T00:39:17;15.50;99.90
56256;DHT22;57229;51.432;-2.598;2022-12-24T00:41:43;15.50;99.90
56256;DHT22;57229;51.432;-2.598;2022-12-24T00:44:09;15.50;99.90
56256;DHT22;57229;51.432;-2.598;2022-12-24T00:46:36;15.50;99.90
56256;DHT22;57229;51.432;-2.598;2022-12-24T00:49:04;15.50;99.90
56256;DHT22;57229;51.432;-2.598;2022-12-24T00:51:30;15.50;99.90
56256;DHT22;57229;51.432;-2.598;2022-12-24T00:53:56;15.50;99.90
56256;DHT22;57229;51.432;-2.598;2022-12-24T00:56:22;15.40;99.90
56256;DHT22;57229;51.432;-2.598;2022-12-24T00:58:48;15.40;99.90
56256;DHT22;57229;51.432;-2.598;2022-12-24T01:01:14;15.40;99.90
56256;DHT22;57229;51.432;-2.598;2022-12-24T01:03:40;15.40;99.90
56256;DHT22;57229;51.432;-2.598;2022-12-24T01:06:07;15.40;99.90
56256;DHT22;57229;51.432;-2.598;2022-12-24T01:08:34;15.40;99.90
56256;DHT22;57229;51.432;-2.598;2022-12-24T01:11:04;15.40;99.90
56256;DHT22;57229;51.432;-2.598;2022-12-24T01:13:30;15.40;99.90
56256;DHT22;57229;51.432;-2.598;2022-12-24T01:15:56;15.40;99.90
56256;DHT22;57229;51.432;-2.598;2022-12-24T01:18:23;15.40;99.90
56256;DHT22;57229;51.432;-2.598;2022-12-24T01:20:59;15.40;99.90
56256;DHT22;57229;51.432;-2.598;2022-12-24T01:23:26;15.40;99.90
56256;DHT22;57229;51.432;-2.598;2022-12-24T01:25:52;15.40;99.90
56256;DHT22;57229;51.432;-2.598;2022-12-24T01:28:18;15.40;99.90
56256;DHT22;57229;51.432;-2.598;2022-12-24T01:30:44;15.40;99.90
56256;DHT22;57229;51.432;-2.598;2022-12-24T01:33:10;15.40;99.90
56256;DHT22;57229;51.432;-2.598;2022-12-24T01:35:40;15.40;99.90
56256;DHT22;57229;51.432;-2.598;2022-12-24T01:38:06;15.40;99.90
56256;DHT22;57229;51.432;-2.598;2022-12-24T01:40:31;15.30;99.90
56256;DHT22;57229;51.432;-2.598;2022-12-24T01:43:17;15.30;99.90
56256;DHT22;57229;51.432;-2.598;2022-12-24T01:45:52;15.30;99.90
56256;DHT22;57229;51.432;-2.598;2022-12-24T01:51:01;15.30;99.90
56256;DHT22;57229;51.432;-2.598;2022-12-24T01:53:30;15.30;99.90
56256;DHT22;57229;51.432;-2.598;2022-12-24T01:55:56;15.30;99.90
56256;DHT22;57229;51.432;-2.598;2022-12-24T01:58:23;15.30;99.90
56256;DHT22;57229;51.432;-2.598;2022-12-24T02:00:50;15.30;99.90
56256;DHT22;57229;51.432;-2.598;2022-12-24T02:03:16;15.30;99.90
56256;DHT22;57229;51.432;-2.598;2022-12-24T02:05:48;15.30;99.90
56256;DHT22;57229;51.432;-2.598;2022-12-24T02:08:15;15.30;99.90
56256;DHT22;57229;51.432;-2.598;2022-12-24T02:10:41;15.30;99.90
56256;DHT22;57229;51.432;-2.598;2022-12-24T02:13:07;15.30;99.90
56256;DHT22;57229;51.432;-2.598;2022-12-24T02:16:06;15.30;99.90
56256;DHT22;57229;51.432;-2.598;2022-12-24T02:19:04;15.20;99.90
56256;DHT22;57229;51.432;-2.598;2022-12-24T02:30:50;15.20;99.90
56256;DHT22;57229;51.432;-2.598;2022-12-24T02:33:17;15.20;99.90
56256;DHT22;57229;51.432;-2.598;2022-12-24T02:35:56;15.20;99.90
56256;DHT22;57229;51.432;-2.598;2022-12-24T02:38:25;15.20;99.90
56256;DHT22;57229;51.432;-2.598;2022-12-24T02:41:00;15.20;99.90
56256;DHT22;57229;51.432;-2.598;2022-12-24T02:43:32;15.10;99.90
56256;DHT22;57229;51.432;-2.598;2022-12-24T02:46:22;15.20;99.90
56256;DHT22;57229;51.432;-2.598;2022-12-24T02:48:49;15.20;99.90
56256;DHT22;57229;51.432;-2.598;2022-12-24T02:51:16;15.10;99.90
56256;DHT22;57229;51.432;-2.598;2022-12-24T02:53:46;15.20;99.90
56256;DHT22;57229;51.432;-2.598;2022-12-24T02:57:14;15.10;99.90
56256;DHT22;57229;51.432;-2.598;2022-12-24T03:05:25;15.10;99.90
56256;DHT22;57229;51.432;-2.598;2022-12-24T03:08:03;15.10;99.90
56256;DHT22;57229;51.432;-2.598;2022-12-24T03:10:33;15.10;99.90
56256;DHT22;57229;51.432;-2.598;2022-12-24T03:13:09;15.10;99.90
56256;DHT22;57229;51.432;-2.598;2022-12-24T03:15:39;15.10;99.90
56256;DHT22;57229;51.432;-2.598;2022-12-24T03:18:08;15.10;99.90
56256;DHT22;57229;51.432;-2.598;2022-12-24T03:20:39;15.10;99.90
56256;DHT22;57229;51.432;-2.598;2022-12-24T03:23:06;15.10;99.90
56256;DHT22;57229;51.432;-2.598;2022-12-24T03:25:33;15.10;99.90
56256;DHT22;57229;51.432;-2.598;2022-12-24T03:28:02;15.00;99.90
56256;DHT22;57229;51.432;-2.598;2022-12-24T03:30:29;15.10;99.90
56256;DHT22;57229;51.432;-2.598;2022-12-24T03:32:55;15.10;99.90
56256;DHT22;57229;51.432;-2.598;2022-12-24T03:35:21;15.00;99.90
56256;DHT22;57229;51.432;-2.598;2022-12-24T03:37:46;15.00;99.90
56256;DHT22;57229;51.432;-2.598;2022-12-24T03:40:12;15.00;99.90
56256;DHT22;57229;51.432;-2.598;2022-12-24T03:42:38;15.00;99.90
56256;DHT22;57229;51.432;-2.598;2022-12-24T03:45:04;15.00;99.90
56256;DHT22;57229;51.432;-2.598;2022-12-24T03:47:30;15.00;99.90
56256;DHT22;57229;51.432;-2.598;2022-12-24T03:49:56;15.00;99.90
56256;DHT22;57229;51.432;-2.598;2022-12-24T03:52:22;15.00;99.90
56256;DHT22;57229;51.432;-2.598;2022-12-24T03:54:48;15.00;99.90
56256;DHT22;57229;51.432;-2.598;2022-12-24T03:57:13;15.00;99.90
56256;DHT22;57229;51.432;-2.598;2022-12-24T03:59:39;15.00;99.90
56256;DHT22;57229;51.432;-2.598;2022-12-24T04:02:07;14.90;99.90
56256;DHT22;57229;51.432;-2.598;2022-12-24T04:04:33;15.00;99.90
56256;DHT22;57229;51.432;-2.598;2022-12-24T04:07:01;15.00;99.90
56256;DHT22;57229;51.432;-2.598;2022-12-24T04:09:27;14.90;99.90
56256;DHT22;57229;51.432;-2.598;2022-12-24T04:11:52;14.90;99.90
56256;DHT22;57229;51.432;-2.598;2022-12-24T04:14:18;14.90;99.90
56256;DHT22;57229;51.432;-2.598;2022-12-24T04:16:44;14.90;99.90
56256;DHT22;57229;51.432;-2.598;2022-12-24T04:19:09;14.90;99.90
56256;DHT22;57229;51.432;-2.598;2022-12-24T04:21:35;14.90;99.90
56256;DHT22;57229;51.432;-2.598;2022-12-24T04:24:00;14.90;99.90
56256;DHT22;57229;51.432;-2.598;2022-12-24T04:26:26;14.90;99.90
56256;DHT22;57229;51.432;-2.598;2022-12-24T04:28:52;14.90;99.90
56256;DHT22;57229;51.432;-2.598;2022-12-24T04:31:17;14.90;99.90
56256;DHT22;57229;51.432;-2.598;2022-12-24T04:33:44;14.80;99.90
56256;DHT22;57229;51.432;-2.598;2022-12-24T04:36:15;14.80;99.90
56256;DHT22;57229;51.432;-2.598;2022-12-24T04:38:45;14.80;99.90
56256;DHT22;57229;51.432;-2.598;2022-12-24T04:41:14;14.80;99.90
56256;DHT22;57229;51.432;-2.598;2022-12-24T04:43:41;14.80;99.90
56256;DHT22;57229;51.432;-2.598;2022-12-24T04:46:08;14.80;99.90
56256;DHT22;57229;51.432;-2.598;2022-12-24T04:48:35;14.80;99.90
56256;DHT22;57229;51.432;-2.598;2022-12-24T04:51:02;14.80;99.90
56256;DHT22;57229;51.432;-2.598;2022-12-24T04:53:28;14.80;99.90
56256;DHT22;57229;51.432;-2.598;2022-12-24T04:55:54;14.80;99.90
56256;DHT22;57229;51.432;-2.598;2022-12-24T04:58:19;14.80;99.90
56256;DHT22;57229;51.432;-2.598;2022-12-24T05:00:45;14.70;99.90
56256;DHT22;57229;51.432;-2.598;2022-12-24T05:03:10;14.70;99.90
56256;DHT22;57229;51.432;-2.598;2022-12-24T05:05:36;14.70;99.90
56256;DHT22;57229;51.432;-2.598;2022-12-24T05:08:02;14.70;99.90
56256;DHT22;57229;51.432;-2.598;2022-12-24T05:10:28;14.70;99.90
56256;DHT22;57229;51.432;-2.598;2022-12-24T05:12:54;14.70;99.90
56256;DHT22;57229;51.432;-2.598;2022-12-24T05:15:20;14.70;99.90
56256;DHT22;57229;51.432;-2.598;2022-12-24T05:17:45;14.70;99.90
56256;DHT22;57229;51.432;-2.598;2022-12-24T05:20:11;14.70;99.90
56256;DHT22;57229;51.432;-2.598;2022-12-24T05:22:37;14.70;99.90
56256;DHT22;57229;51.432;-2.598;2022-12-24T05:25:21;14.70;99.90
56256;DHT22;57229;51.432;-2.598;2022-12-24T05:28:05;14.70;99.90
56256;DHT22;57229;51.432;-2.598;2022-12-24T05:30:31;14.60;99.90
56256;DHT22;57229;51.432;-2.598;2022-12-24T05:32:56;14.60;99.90
56256;DHT22;57229;51.432;-2.598;2022-12-24T05:35:22;14.60;99.90
56256;DHT22;57229;51.432;-2.598;2022-12-24T05:37:48;14.60;99.90
56256;DHT22;57229;51.432;-2.598;2022-12-24T05:40:13;14.60;99.90
56256;DHT22;57229;51.432;-2.598;2022-12-24T05:42:39;14.60;99.90
56256;DHT22;57229;51.432;-2.598;2022-12-24T05:45:05;14.60;99.90
56256;DHT22;57229;51.432;-2.598;2022-12-24T05:47:31;14.60;99.90
56256;DHT22;57229;51.432;-2.598;2022-12-24T05:49:57;14.60;99.90
56256;DHT22;57229;51.432;-2.598;2022-12-24T05:52:22;14.50;99.90
56256;DHT22;57229;51.432;-2.598;2022-12-24T05:54:48;14.60;99.90
56256;DHT22;57229;51.432;-2.598;2022-12-24T05:57:15;14.60;99.90
56256;DHT22;57229;51.432;-2.598;2022-12-24T05:59:40;14.50;99.90
56256;DHT22;57229;51.432;-2.598;2022-12-24T06:02:06;14.50;99.90
56256;DHT22;57229;51.432;-2.598;2022-12-24T06:04:32;14.50;99.90
56256;DHT22;57229;51.432;-2.598;2022-12-24T06:06:57;14.50;99.90
56256;DHT22;57229;51.432;-2.598;2022-12-24T06:09:23;14.50;99.90
56256;DHT22;57229;51.432;-2.598;2022-12-24T06:11:49;14.50;99.90
56256;DHT22;57229;51.432;-2.598;2022-12-24T06:14:14;14.40;99.90
56256;DHT22;57229;51.432;-2.598;2022-12-24T06:16:40;14.40;99.90
56256;DHT22;57229;51.432;-2.598;2022-12-24T06:19:06;14.40;99.90
56256;DHT22;57229;51.432;-2.598;2022-12-24T06:21:31;14.40;99.90
56256;DHT22;57229;51.432;-2.598;2022-12-24T06:23:57;14.40;99.90
56256;DHT22;57229;51.432;-2.598;2022-12-24T06:26:23;14.40;99.90
56256;DHT22;57229;51.432;-2.598;2022-12-24T06:28:49;14.40;99.90
56256;DHT22;57229;51.432;-2.598;2022-12-24T06:31:18;14.40;99.90
56256;DHT22;57229;51.432;-2.598;2022-12-24T06:33:44;14.30;99.90
56256;DHT22;57229;51.432;-2.598;2022-12-24T06:36:36;14.30;99.90
56256;DHT22;57229;51.432;-2.598;2022-12-24T06:39:02;14.40;99.90
56256;DHT22;57229;51.432;-2.598;2022-12-24T06:41:28;14.50;99.90
56256;DHT22;57229;51.432;-2.598;2022-12-24T06:43:53;14.50;99.90
56256;DHT22;57229;51.432;-2.598;2022-12-24T06:46:20;14.60;99.90
56256;DHT22;57229;51.432;-2.598;2022-12-24T06:48:46;14.60;99.90
56256;DHT22;57229;51.432;-2.598;2022-12-24T06:51:13;14.60;99.90
56256;DHT22;57229;51.432;-2.598;2022-12-24T06:53:39;14.60;99.90
56256;DHT22;57229;51.432;-2.598;2022-12-24T06:56:08;14.60;99.90
56256;DHT22;57229;51.432;-2.598;2022-12-24T06:58:34;14.60;99.90
56256;DHT22;57229;51.432;-2.598;2022-12-24T07:01:04;14.50;99.90
56256;DHT22;57229;51.432;-2.598;2022-12-24T07:03:31;14.50;99.90
56256;DHT22;57229;51.432;-2.598;2022-12-24T07:05:57;14.40;99.90
56256;DHT22;57229;51.432;-2.598;2022-12-24T07:08:23;14.30;99.90
56256;DHT22;57229;51.432;-2.598;2022-12-24T07:10:50;14.30;99.90
56256;DHT22;57229;51.432;-2.598;2022-12-24T07:13:16;14.20;99.90
56256;DHT22;57229;51.432;-2.598;2022-12-24T07:15:41;14.20;99.90
56256;DHT22;57229;51.432;-2.598;2022-12-24T07:18:07;14.20;99.90
56256;DHT22;57229;51.432;-2.598;2022-12-24T07:20:33;14.20;99.90
56256;DHT22;57229;51.432;-2.598;2022-12-24T07:23:00;14.10;99.90
56256;DHT22;57229;51.432;-2.598;2022-12-24T07:25:25;14.10;99.90
56256;DHT22;57229;51.432;-2.598;2022-12-24T07:27:51;14.20;99.90
56256;DHT22;57229;51.432;-2.598;2022-12-24T07:30:17;14.20;99.90
56256;DHT22;57229;51.432;-2.598;2022-12-24T07:32:43;14.30;99.90
56256;DHT22;57229;51.432;-2.598;2022-12-24T07:35:09;14.40;99.90
56256;DHT22;57229;51.432;-2.598;2022-12-24T07:37:34;14.50;99.90
56256;DHT22;57229;51.432;-2.598;2022-12-24T07:40:00;14.60;99.90
56256;DHT22;57229;51.432;-2.598;2022-12-24T07:42:26;14.70;99.90
56256;DHT22;57229;51.432;-2.598;2022-12-24T07:44:51;14.70;99.90
56256;DHT22;57229;51.432;-2.598;2022-12-24T07:47:17;14.80;99.90
56256;DHT22;57229;51.432;-2.598;2022-12-24T07:49:43;14.80;99.90
56256;DHT22;57229;51.432;-2.598;2022-12-24T07:52:09;14.90;99.90
56256;DHT22;57229;51.432;-2.598;2022-12-24T07:54:35;15.00;99.90
56256;DHT22;57229;51.432;-2.598;2022-12-24T07:57:00;15.00;99.90
56256;DHT22;57229;51.432;-2.598;2022-12-24T07:59:26;15.10;99.90
56256;DHT22;57229;51.432;-2.598;2022-12-24T08:01:52;15.10;99.90
56256;DHT22;57229;51.432;-2.598;2022-12-24T08:04:17;15.20;99.90
56256;DHT22;57229;51.432;-2.598;2022-12-24T08:06:43;15.30;99.90
56256;DHT22;57229;51.432;-2.598;2022-12-24T08:09:08;15.40;99.90
56256;DHT22;57229;51.432;-2.598;2022-12-24T08:11:34;15.40;99.90
56256;DHT22;57229;51.432;-2.598;2022-12-24T08:14:00;15.50;99.90
56256;DHT22;57229;51.432;-2.598;2022-12-24T08:16:25;15.50;99.90
56256;DHT22;57229;51.432;-2.598;2022-12-24T08:18:51;15.50;99.90
56256;DHT22;57229;51.432;-2.598;2022-12-24T08:21:17;15.60;99.90
56256;DHT22;57229;51.432;-2.598;2022-12-24T08:23:42;15.50;99.90
56256;DHT22;57229;51.432;-2.598;2022-12-24T08:26:09;15.50;99.90
56256;DHT22;57229;51.432;-2.598;2022-12-24T08:28:35;15.60;99.90
56256;DHT22;57229;51.432;-2.598;2022-12-24T08:31:01;15.50;99.90
56256;DHT22;57229;51.432;-2.598;2022-12-24T08:33:27;15.50;99.90
56256;DHT22;57229;51.432;-2.598;2022-12-24T08:35:54;15.60;99.90
56256;DHT22;57229;51.432;-2.598;2022-12-24T08:38:21;15.60;99.90
56256;DHT22;57229;51.432;-2.598;2022-12-24T08:40:47;15.60;99.90
56256;DHT22;57229;51.432;-2.598;2022-12-24T08:43:15;15.60;99.90
56256;DHT22;57229;51.432;-2.598;2022-12-24T08:45:41;15.60;99.90
56256;DHT22;57229;51.432;-2.598;2022-12-24T08:48:08;15.60;99.90
56256;DHT22;57229;51.432;-2.598;2022-12-24T08:50:34;15.60;99.90
56256;DHT22;57229;51.432;-2.598;2022-12-24T08:53:00;15.60;99.90
56256;DHT22;57229;51.432;-2.598;2022-12-24T08:55:26;15.60;99.90
56256;DHT22;57229;51.432;-2.598;2022-12-24T08:57:52;15.60;99.90
56256;DHT22;57229;51.432;-2.598;2022-12-24T09:00:18;15.50;99.90
56256;DHT22;57229;51.432;-2.598;2022-12-24T09:02:44;15.50;99.90
56256;DHT22;57229;51.432;-2.598;2022-12-24T09:05:09;15.50;99.90
56256;DHT22;57229;51.432;-2.598;2022-12-24T09:07:36;15.50;99.90
56256;DHT22;57229;51.432;-2.598;2022-12-24T09:10:02;15.50;99.90
56256;DHT22;57229;51.432;-2.598;2022-12-24T09:12:28;15.50;99.90
56256;DHT22;57229;51.432;-2.598;2022-12-24T09:14:53;15.50;99.90
56256;DHT22;57229;51.432;-2.598;2022-12-24T09:17:20;15.50;99.90
56256;DHT22;57229;51.432;-2.598;2022-12-24T09:19:48;15.40;99.90
56256;DHT22;57229;51.432;-2.598;2022-12-24T09:22:14;15.40;99.90
56256;DHT22;57229;51.432;-2.598;2022-12-24T09:24:39;15.40;99.90
56256;DHT22;57229;51.432;-2.598;2022-12-24T09:27:05;15.40;99.90
56256;DHT22;57229;51.432;-2.598;2022-12-24T09:29:31;15.40;99.90
56256;DHT22;57229;51.432;-2.598;2022-12-24T09:31:57;15.30;99.90
56256;DHT22;57229;51.432;-2.598;2022-12-24T09:34:24;15.30;99.90
56256;DHT22;57229;51.432;-2.598;2022-12-24T09:36:50;15.30;99.90
56256;DHT22;57229;51.432;-2.598;2022-12-24T09:39:16;15.30;99.90
56256;DHT22;57229;51.432;-2.598;2022-12-24T09:46:46;15.30;99.90
56256;DHT22;57229;51.432;-2.598;2022-12-24T09:49:26;15.30;99.90
56256;DHT22;57229;51.432;-2.598;2022-12-24T09:52:07;15.30;99.90
56256;DHT22;57229;51.432;-2.598;2022-12-24T09:54:37;15.40;99.90
56256;DHT22;57229;51.432;-2.598;2022-12-24T09:57:26;15.30;99.90
56256;DHT22;57229;51.432;-2.598;2022-12-24T09:59:52;15.30;99.90
56256;DHT22;57229;51.432;-2.598;2022-12-24T10:02:19;15.40;99.90
56256;DHT22;57229;51.432;-2.598;2022-12-24T10:04:46;15.40;99.90
56256;DHT22;57229;51.432;-2.598;2022-12-24T10:07:46;15.40;99.90
56256;DHT22;57229;51.432;-2.598;2022-12-24T10:16:15;15.30;99.90
56256;DHT22;57229;51.432;-2.598;2022-12-24T10:26:45;15.30;99.90
56256;DHT22;57229;51.432;-2.598;2022-12-24T10:29:23;15.30;99.90
56256;DHT22;57229;51.432;-2.598;2022-12-24T10:34:45;15.30;99.90
56256;DHT22;57229;51.432;-2.598;2022-12-24T10:37:19;15.30;99.90
56256;DHT22;57229;51.432;-2.598;2022-12-24T10:39:46;15.30;99.90
56256;DHT22;57229;51.432;-2.598;2022-12-24T10:42:13;15.20;99.90
56256;DHT22;57229;51.432;-2.598;2022-12-24T10:44:39;15.30;99.90
56256;DHT22;57229;51.432;-2.598;2022-12-24T10:47:07;15.30;99.90
56256;DHT22;57229;51.432;-2.598;2022-12-24T10:49:45;15.30;99.90
56256;DHT22;57229;51.432;-2.598;2022-12-24T10:52:14;15.30;99.90
56256;DHT22;57229;51.432;-2.598;2022-12-24T10:57:43;15.30;99.90
56256;DHT22;57229;51.432;-2.598;2022-12-24T11:00:23;15.30;99.90
56256;DHT22;57229;51.432;-2.598;2022-12-24T11:03:05;15.30;99.90
56256;DHT22;57229;51.432;-2.598;2022-12-24T11:05:36;15.30;99.90
56256;DHT22;57229;51.432;-2.598;2022-12-24T11:08:04;15.30;99.90
56256;DHT22;57229;51.432;-2.598;2022-12-24T11:10:41;15.40;99.90
56256;DHT22;57229;51.432;-2.598;2022-12-24T11:13:33;15.40;99.90
56256;DHT22;57229;51.432;-2.598;2022-12-24T11:16:22;15.50;99.90
56256;DHT22;57229;51.432;-2.598;2022-12-24T11:18:52;15.50;99.90
56256;DHT22;57229;51.432;-2.598;2022-12-24T11:21:29;15.50;99.90
56256;DHT22;57229;51.432;-2.598;2022-12-24T11:26:38;15.70;99.90
56256;DHT22;57229;51.432;-2.598;2022-12-24T11:29:23;15.70;99.90
56256;DHT22;57229;51.432;-2.598;2022-12-24T11:32:14;15.70;99.90
56256;DHT22;57229;51.432;-2.598;2022-12-24T11:34:42;15.90;99.90
56256;DHT22;57229;51.432;-2.598;2022-12-24T11:37:20;15.90;99.90
56256;DHT22;57229;51.432;-2.598;2022-12-24T11:39:53;16.00;99.90
56256;DHT22;57229;51.432;-2.598;2022-12-24T11:42:35;16.00;99.90
56256;DHT22;57229;51.432;-2.598;2022-12-24T11:45:23;16.10;99.70
56256;DHT22;57229;51.432;-2.598;2022-12-24T11:47:50;16.10;99.60
56256;DHT22;57229;51.432;-2.598;2022-12-24T11:52:58;16.10;99.50
56256;DHT22;57229;51.432;-2.598;2022-12-24T11:55:51;16.20;99.40
56256;DHT22;57229;51.432;-2.598;2022-12-24T11:58:48;16.30;99.30
56256;DHT22;57229;51.432;-2.598;2022-12-24T12:04:37;16.30;99.20
56256;DHT22;57229;51.432;-2.598;2022-12-24T12:07:19;16.20;99.10
56256;DHT22;57229;51.432;-2.598;2022-12-24T12:10:11;16.30;99.10
56256;DHT22;57229;51.432;-2.598;2022-12-24T12:19:43;16.40;99.50
56256;DHT22;57229;51.432;-2.598;2022-12-24T12:24:50;16.50;99.70
56256;DHT22;57229;51.432;-2.598;2022-12-24T12:27:31;16.60;99.80
56256;DHT22;57229;51.432;-2.598;2022-12-24T12:30:14;16.60;99.70
56256;DHT22;57229;51.432;-2.598;2022-12-24T12:32:50;16.70;99.70
56256;DHT22;57229;51.432;-2.598;2022-12-24T12:35:39;16.80;99.70
56256;DHT22;57229;51.432;-2.598;2022-12-24T12:38:24;16.90;99.60
56256;DHT22;57229;51.432;-2.598;2022-12-24T12:43:35;17.00;99.50
56256;DHT22;57229;51.432;-2.598;2022-12-24T12:50:01;17.00;99.50
56256;DHT22;57229;51.432;-2.598;2022-12-24T12:54:55;16.90;99.50
56256;DHT22;57229;51.432;-2.598;2022-12-24T12:57:33;17.00;99.50
56256;DHT22;57229;51.432;-2.598;2022-12-24T13:00:03;17.00;99.50
56256;DHT22;57229;51.432;-2.598;2022-12-24T13:05:37;17.00;99.50
56256;DHT22;57229;51.432;-2.598;2022-12-24T13:22:15;17.70;98.80
56256;DHT22;57229;51.432;-2.598;2022-12-24T13:24:47;18.00;98.40
56256;DHT22;57229;51.432;-2.598;2022-12-24T13:27:27;18.20;98.00
56256;DHT22;57229;51.432;-2.598;2022-12-24T13:30:02;18.40;97.70
56256;DHT22;57229;51.432;-2.598;2022-12-24T13:32:48;18.50;97.50
56256;DHT22;57229;51.432;-2.598;2022-12-24T13:37:46;18.60;97.20
56256;DHT22;57229;51.432;-2.598;2022-12-24T13:40:16;18.60;97.10
56256;DHT22;57229;51.432;-2.598;2022-12-24T13:43:12;18.70;96.90
56256;DHT22;57229;51.432;-2.598;2022-12-24T13:56:02;19.20;95.70
56256;DHT22;57229;51.432;-2.598;2022-12-24T13:58:30;19.30;95.50
56256;DHT22;57229;51.432;-2.598;2022-12-24T14:01:05;19.20;95.40
56256;DHT22;57229;51.432;-2.598;2022-12-24T14:03:48;19.30;95.40
56256;DHT22;57229;51.432;-2.598;2022-12-24T14:06:35;19.20;95.10
56256;DHT22;57229;51.432;-2.598;2022-12-24T14:09:11;19.20;95.00
56256;DHT22;57229;51.432;-2.598;2022-12-24T14:14:33;19.10;94.90
56256;DHT22;57229;51.432;-2.598;2022-12-24T14:22:39;18.90;95.30
56256;DHT22;57229;51.432;-2.598;2022-12-24T14:25:14;18.90;95.40
56256;DHT22;57229;51.432;-2.598;2022-12-24T14:30:08;18.90;95.50
56256;DHT22;57229;51.432;-2.598;2022-12-24T14:32:41;18.90;95.50
56256;DHT22;57229;51.432;-2.598;2022-12-24T14:35:20;18.90;95.40
56256;DHT22;57229;51.432;-2.598;2022-12-24T14:38:04;18.80;95.30
56256;DHT22;57229;51.432;-2.598;2022-12-24T14:40:33;18.80;95.30
56256;DHT22;57229;51.432;-2.598;2022-12-24T14:45:53;18.80;95.40
56256;DHT22;57229;51.432;-2.598;2022-12-24T14:48:41;18.70;95.50
56256;DHT22;57229;51.432;-2.598;2022-12-24T14:51:16;18.70;95.50
56256;DHT22;57229;51.432;-2.598;2022-12-24T14:56:26;18.50;95.50
56256;DHT22;57229;51.432;-2.598;2022-12-24T14:58:52;18.50;95.60
56256;DHT22;57229;51.432;-2.598;2022-12-24T15:03:44;18.30;95.80
56256;DHT22;57229;51.432;-2.598;2022-12-24T15:06:12;18.20;96.00
56256;DHT22;57229;51.432;-2.598;2022-12-24T15:08:46;18.20;96.10
56256;DHT22;57229;51.432;-2.598;2022-12-24T15:11:18;18.10;96.20
56256;DHT22;57229;51.432;-2.598;2022-12-24T15:13:56;18.00;96.40
56256;DHT22;57229;51.432;-2.598;2022-12-24T15:26:36;17.60;97.00
56256;DHT22;57229;51.432;-2.598;2022-12-24T15:29:20;17.50;97.20
56256;DHT22;57229;51.432;-2.598;2022-12-24T15:31:57;17.50;97.30
56256;DHT22;57229;51.432;-2.598;2022-12-24T15:34:28;17.40;97.30
56256;DHT22;57229;51.432;-2.598;2022-12-24T15:37:28;17.40;97.30
56256;DHT22;57229;51.432;-2.598;2022-12-24T15:40:21;17.30;97.40
56256;DHT22;57229;51.432;-2.598;2022-12-24T15:42:50;17.20;97.40
56256;DHT22;57229;51.432;-2.598;2022-12-24T15:45:18;17.10;97.40
56256;DHT22;57229;51.432;-2.598;2022-12-24T15:47:55;17.10;97.50
56256;DHT22;57229;51.432;-2.598;2022-12-24T15:50:29;17.10;97.60
56256;DHT22;57229;51.432;-2.598;2022-12-24T15:52:59;17.00;97.70
56256;DHT22;57229;51.432;-2.598;2022-12-24T15:55:26;16.90;97.80
56256;DHT22;57229;51.432;-2.598;2022-12-24T16:01:26;16.90;98.50
56256;DHT22;57229;51.432;-2.598;2022-12-24T16:04:22;16.80;98.60
56256;DHT22;57229;51.432;-2.598;2022-12-24T16:10:32;16.70;98.70
56256;DHT22;57229;51.432;-2.598;2022-12-24T16:13:37;16.60;98.80
56256;DHT22;57229;51.432;-2.598;2022-12-24T16:16:11;16.60;98.90
56256;DHT22;57229;51.432;-2.598;2022-12-24T16:22:18;16.40;99.10
56256;DHT22;57229;51.432;-2.598;2022-12-24T16:25:07;16.40;99.20
56256;DHT22;57229;51.432;-2.598;2022-12-24T16:27:52;16.40;99.30
56256;DHT22;57229;51.432;-2.598;2022-12-24T16:30:21;16.30;99.30
56256;DHT22;57229;51.432;-2.598;2022-12-24T16:32:47;16.30;99.50
56256;DHT22;57229;51.432;-2.598;2022-12-24T16:35:26;16.60;99.60
56256;DHT22;57229;51.432;-2.598;2022-12-24T16:37:54;16.20;99.60
56256;DHT22;57229;51.432;-2.598;2022-12-24T16:40:21;16.10;99.60
56256;DHT22;57229;51.432;-2.598;2022-12-24T16:42:54;16.10;99.70
56256;DHT22;57229;51.432;-2.598;2022-12-24T16:45:38;16.10;99.70
56256;DHT22;57229;51.432;-2.598;2022-12-24T16:48:05;16.10;99.70
56256;DHT22;57229;51.432;-2.598;2022-12-24T16:50:33;16.00;99.70
56256;DHT22;57229;51.432;-2.598;2022-12-24T16:52:59;16.00;99.80
56256;DHT22;57229;51.432;-2.598;2022-12-24T16:55:24;16.00;99.80
56256;DHT22;57229;51.432;-2.598;2022-12-24T16:57:50;16.00;99.90
56256;DHT22;57229;51.432;-2.598;2022-12-24T17:00:18;15.90;99.90
56256;DHT22;57229;51.432;-2.598;2022-12-24T17:02:45;15.90;99.90
56256;DHT22;57229;51.432;-2.598;2022-12-24T17:05:12;15.90;99.90
56256;DHT22;57229;51.432;-2.598;2022-12-24T17:10:55;15.80;99.90
56256;DHT22;57229;51.432;-2.598;2022-12-24T17:13:24;15.80;99.90
56256;DHT22;57229;51.432;-2.598;2022-12-24T17:19:25;15.70;99.90
56256;DHT22;57229;51.432;-2.598;2022-12-24T17:21:55;15.70;99.90
56256;DHT22;57229;51.432;-2.598;2022-12-24T17:28:01;15.70;99.90
56256;DHT22;57229;51.432;-2.598;2022-12-24T17:30:33;15.70;99.90
56256;DHT22;57229;51.432;-2.598;2022-12-24T17:33:02;15.70;99.90
56256;DHT22;57229;51.432;-2.598;2022-12-24T17:35:27;15.70;99.90
56256;DHT22;57229;51.432;-2.598;2022-12-24T17:37:53;15.60;99.90
56256;DHT22;57229;51.432;-2.598;2022-12-24T17:40:20;15.60;99.90
56256;DHT22;57229;51.432;-2.598;2022-12-24T17:45:45;15.60;99.90
56256;DHT22;57229;51.432;-2.598;2022-12-24T17:51:44;15.60;99.90
56256;DHT22;57229;51.432;-2.598;2022-12-24T18:05:40;15.50;99.90
56256;DHT22;57229;51.432;-2.598;2022-12-24T18:12:39;15.50;99.90
56256;DHT22;57229;51.432;-2.598;2022-12-24T18:15:39;15.50;99.90
56256;DHT22;57229;51.432;-2.598;2022-12-24T18:31:42;15.40;99.90
56256;DHT22;57229;51.432;-2.598;2022-12-24T18:51:30;15.30;99.90
56256;DHT22;57229;51.432;-2.598;2022-12-24T18:54:14;15.30;99.90
56256;DHT22;57229;51.432;-2.598;2022-12-24T18:56:40;15.30;99.90